sensor_id;sensor_type;location;lat;lon;timestamp;P1;durP1;ratioP1;P2;durP2;ratioP2
71629;SDS011;59479;51.902;8.212;2023-02-03T00:01:40;19.17;;;12.37;;
71629;SDS011;59479;51.902;8.212;2023-02-03T00:04:06;21.53;;;11.90;;
71629;SDS011;59479;51.902;8.212;2023-02-03T00:06:31;19.67;;;11.47;;
71629;SDS011;59479;51.902;8.212;2023-02-03T00:08:57;22.88;;;12.43;;
71629;SDS011;59479;51.902;8.212;2023-02-03T00:11:23;22.17;;;11.95;;
71629;SDS011;59479;51.902;8.212;2023-02-03T00:13:49;23.10;;;12.25;;
71629;SDS011;59479;51.902;8.212;2023-02-03T00:16:14;21.20;;;11.07;;
71629;SDS011;59479;51.902;8.212;2023-02-03T00:18:40;22.10;;;11.50;;
71629;SDS011;59479;51.902;8.212;2023-02-03T00:21:05;19.80;;;11.57;;
71629;SDS011;59479;51.902;8.212;2023-02-03T00:23:30;25.83;;;11.73;;
71629;SDS011;59479;51.902;8.212;2023-02-03T00:25:57;21.02;;;11.32;;
71629;SDS011;59479;51.902;8.212;2023-02-03T00:28:30;24.73;;;12.20;;
71629;SDS011;59479;51.902;8.212;2023-02-03T00:30:56;21.80;;;11.50;;
71629;SDS011;59479;51.902;8.212;2023-02-03T00:33:24;20.27;;;11.95;;
71629;SDS011;59479;51.902;8.212;2023-02-03T00:35:50;25.93;;;12.07;;
71629;SDS011;59479;51.902;8.212;2023-02-03T00:38:15;22.67;;;11.83;;
71629;SDS011;59479;51.902;8.212;2023-02-03T00:40:40;24.25;;;12.27;;
71629;SDS011;59479;51.902;8.212;2023-02-03T00:43:06;23.77;;;11.97;;
71629;SDS011;59479;51.902;8.212;2023-02-03T00:45:31;24.47;;;12.37;;
71629;SDS011;59479;51.902;8.212;2023-02-03T00:47:57;20.60;;;11.93;;
71629;SDS011;59479;51.902;8.212;2023-02-03T00:50:22;24.37;;;12.53;;
71629;SDS011;59479;51.902;8.212;2023-02-03T00:52:47;21.73;;;12.60;;
71629;SDS011;59479;51.902;8.212;2023-02-03T00:55:12;22.53;;;11.23;;
71629;SDS011;59479;51.902;8.212;2023-02-03T00:57:38;23.85;;;11.98;;
71629;SDS011;59479;51.902;8.212;2023-02-03T01:00:03;24.37;;;12.27;;
71629;SDS011;59479;51.902;8.212;2023-02-03T01:02:29;25.93;;;13.53;;
71629;SDS011;59479;51.902;8.212;2023-02-03T01:04:54;24.87;;;13.17;;
71629;SDS011;59479;51.902;8.212;2023-02-03T01:07:20;21.27;;;11.85;;
71629;SDS011;59479;51.902;8.212;2023-02-03T01:09:45;25.53;;;12.43;;
71629;SDS011;59479;51.902;8.212;2023-02-03T01:12:10;20.03;;;11.83;;
71629;SDS011;59479;51.902;8.212;2023-02-03T01:14:36;26.57;;;12.60;;
71629;SDS011;59479;51.902;8.212;2023-02-03T01:17:01;26.17;;;12.77;;
71629;SDS011;59479;51.902;8.212;2023-02-03T01:19:27;25.17;;;11.60;;
71629;SDS011;59479;51.902;8.212;2023-02-03T01:21:52;25.40;;;12.83;;
71629;SDS011;59479;51.902;8.212;2023-02-03T01:24:17;22.83;;;11.82;;
71629;SDS011;59479;51.902;8.212;2023-02-03T01:26:43;24.80;;;11.60;;
71629;SDS011;59479;51.902;8.212;2023-02-03T01:29:08;25.17;;;12.07;;
71629;SDS011;59479;51.902;8.212;2023-02-03T01:31:35;26.30;;;12.37;;
71629;SDS011;59479;51.902;8.212;2023-02-03T01:34:04;20.90;;;11.80;;
71629;SDS011;59479;51.902;8.212;2023-02-03T01:36:30;22.50;;;11.63;;
71629;SDS011;59479;51.902;8.212;2023-02-03T01:38:57;20.92;;;11.25;;
71629;SDS011;59479;51.902;8.212;2023-02-03T01:41:24;26.10;;;11.93;;
71629;SDS011;59479;51.902;8.212;2023-02-03T01:43:53;22.67;;;12.13;;
71629;SDS011;59479;51.902;8.212;2023-02-03T01:46:29;22.00;;;11.65;;
71629;SDS011;59479;51.902;8.212;2023-02-03T01:51:31;23.33;;;11.45;;
71629;SDS011;59479;51.902;8.212;2023-02-03T01:53:56;20.93;;;12.17;;
71629;SDS011;59479;51.902;8.212;2023-02-03T01:56:23;22.27;;;11.13;;
71629;SDS011;59479;51.902;8.212;2023-02-03T01:58:52;22.00;;;10.98;;
71629;SDS011;59479;51.902;8.212;2023-02-03T02:01:17;20.43;;;10.80;;
71629;SDS011;59479;51.902;8.212;2023-02-03T02:03:44;23.77;;;11.63;;
71629;SDS011;59479;51.902;8.212;2023-02-03T02:06:13;20.50;;;10.98;;
71629;SDS011;59479;51.902;8.212;2023-02-03T02:08:40;21.05;;;9.65;;
71629;SDS011;59479;51.902;8.212;2023-02-03T02:11:08;21.38;;;10.63;;
71629;SDS011;59479;51.902;8.212;2023-02-03T02:13:33;20.00;;;10.57;;
71629;SDS011;59479;51.902;8.212;2023-02-03T02:16:11;18.40;;;9.65;;
71629;SDS011;59479;51.902;8.212;2023-02-03T02:26:50;17.40;;;9.63;;
71629;SDS011;59479;51.902;8.212;2023-02-03T02:32:39;19.30;;;9.77;;
71629;SDS011;59479;51.902;8.212;2023-02-03T02:35:27;18.02;;;9.95;;
71629;SDS011;59479;51.902;8.212;2023-02-03T02:40:49;18.23;;;8.93;;
71629;SDS011;59479;51.902;8.212;2023-02-03T02:45:45;15.82;;;8.25;;
71629;SDS011;59479;51.902;8.212;2023-02-03T02:48:21;17.17;;;8.50;;
71629;SDS011;59479;51.902;8.212;2023-02-03T02:50:52;17.67;;;8.30;;
71629;SDS011;59479;51.902;8.212;2023-02-03T02:53:21;16.98;;;8.88;;
71629;SDS011;59479;51.902;8.212;2023-02-03T02:55:49;19.25;;;8.52;;
71629;SDS011;59479;51.902;8.212;2023-02-03T02:58:16;16.27;;;8.90;;
71629;SDS011;59479;51.902;8.212;2023-02-03T03:00:43;19.58;;;8.30;;
71629;SDS011;59479;51.902;8.212;2023-02-03T03:03:16;19.67;;;8.27;;
71629;SDS011;59479;51.902;8.212;2023-02-03T03:05:54;17.45;;;8.45;;
71629;SDS011;59479;51.902;8.212;2023-02-03T03:09:09;19.23;;;8.57;;
71629;SDS011;59479;51.902;8.212;2023-02-03T03:11:12;16.60;;;8.32;;
71629;SDS011;59479;51.902;8.212;2023-02-03T03:13:39;15.50;;;8.33;;
71629;SDS011;59479;51.902;8.212;2023-02-03T03:16:08;19.30;;;8.68;;
71629;SDS011;59479;51.902;8.212;2023-02-03T03:18:41;17.43;;;8.83;;
71629;SDS011;59479;51.902;8.212;2023-02-03T03:21:12;15.45;;;8.15;;
71629;SDS011;59479;51.902;8.212;2023-02-03T03:23:43;17.67;;;8.88;;
71629;SDS011;59479;51.902;8.212;2023-02-03T03:26:23;15.10;;;7.88;;
71629;SDS011;59479;51.902;8.212;2023-02-03T03:29:09;14.40;;;7.80;;
71629;SDS011;59479;51.902;8.212;2023-02-03T03:31:39;16.67;;;8.47;;
71629;SDS011;59479;51.902;8.212;2023-02-03T03:34:05;13.40;;;7.57;;
71629;SDS011;59479;51.902;8.212;2023-02-03T03:36:43;17.13;;;8.13;;
71629;SDS011;59479;51.902;8.212;2023-02-03T03:39:18;15.43;;;8.35;;
71629;SDS011;59479;51.902;8.212;2023-02-03T03:44:26;16.00;;;7.25;;
71629;SDS011;59479;51.902;8.212;2023-02-03T03:47:11;17.15;;;8.55;;
71629;SDS011;59479;51.902;8.212;2023-02-03T03:49:42;15.73;;;7.75;;
71629;SDS011;59479;51.902;8.212;2023-02-03T03:52:11;13.55;;;7.25;;
71629;SDS011;59479;51.902;8.212;2023-02-03T03:54:42;16.03;;;7.23;;
71629;SDS011;59479;51.902;8.212;2023-02-03T03:57:12;15.38;;;7.10;;
71629;SDS011;59479;51.902;8.212;2023-02-03T03:59:42;15.48;;;7.28;;
71629;SDS011;59479;51.902;8.212;2023-02-03T04:02:11;17.52;;;6.80;;
71629;SDS011;59479;51.902;8.212;2023-02-03T04:04:38;18.55;;;7.55;;
71629;SDS011;59479;51.902;8.212;2023-02-03T04:07:05;14.70;;;6.87;;
71629;SDS011;59479;51.902;8.212;2023-02-03T04:09:30;16.00;;;7.38;;
71629;SDS011;59479;51.902;8.212;2023-02-03T04:11:55;14.57;;;7.10;;
71629;SDS011;59479;51.902;8.212;2023-02-03T04:14:31;14.10;;;7.25;;
71629;SDS011;59479;51.902;8.212;2023-02-03T04:17:01;16.40;;;7.13;;
71629;SDS011;59479;51.902;8.212;2023-02-03T04:19:27;14.30;;;6.43;;
71629;SDS011;59479;51.902;8.212;2023-02-03T04:21:52;15.27;;;7.18;;
71629;SDS011;59479;51.902;8.212;2023-02-03T04:24:17;14.87;;;6.50;;
71629;SDS011;59479;51.902;8.212;2023-02-03T04:26:43;14.47;;;6.77;;
71629;SDS011;59479;51.902;8.212;2023-02-03T04:29:08;16.13;;;7.27;;
71629;SDS011;59479;51.902;8.212;2023-02-03T04:31:34;12.70;;;6.40;;
71629;SDS011;59479;51.902;8.212;2023-02-03T04:33:59;15.13;;;6.50;;
71629;SDS011;59479;51.902;8.212;2023-02-03T04:36:24;15.87;;;6.77;;
71629;SDS011;59479;51.902;8.212;2023-02-03T04:38:50;12.18;;;6.18;;
71629;SDS011;59479;51.902;8.212;2023-02-03T04:41:16;14.93;;;6.80;;
71629;SDS011;59479;51.902;8.212;2023-02-03T04:43:41;13.02;;;6.68;;
71629;SDS011;59479;51.902;8.212;2023-02-03T04:46:07;13.33;;;6.43;;
71629;SDS011;59479;51.902;8.212;2023-02-03T04:48:32;14.70;;;5.77;;
71629;SDS011;59479;51.902;8.212;2023-02-03T04:51:02;16.42;;;6.30;;
71629;SDS011;59479;51.902;8.212;2023-02-03T04:53:29;12.50;;;5.85;;
71629;SDS011;59479;51.902;8.212;2023-02-03T04:55:55;12.70;;;6.30;;
71629;SDS011;59479;51.902;8.212;2023-02-03T04:58:21;13.67;;;6.50;;
71629;SDS011;59479;51.902;8.212;2023-02-03T05:00:46;12.07;;;6.20;;
71629;SDS011;59479;51.902;8.212;2023-02-03T05:03:11;12.63;;;6.10;;
71629;SDS011;59479;51.902;8.212;2023-02-03T05:05:37;14.13;;;5.70;;
71629;SDS011;59479;51.902;8.212;2023-02-03T05:08:02;13.07;;;6.10;;
71629;SDS011;59479;51.902;8.212;2023-02-03T05:10:28;16.23;;;5.97;;
71629;SDS011;59479;51.902;8.212;2023-02-03T05:12:53;14.30;;;6.27;;
71629;SDS011;59479;51.902;8.212;2023-02-03T05:15:18;14.23;;;5.47;;
71629;SDS011;59479;51.902;8.212;2023-02-03T05:17:44;14.13;;;5.57;;
71629;SDS011;59479;51.902;8.212;2023-02-03T05:20:09;13.07;;;5.90;;
71629;SDS011;59479;51.902;8.212;2023-02-03T05:22:35;11.83;;;5.80;;
71629;SDS011;59479;51.902;8.212;2023-02-03T05:25:00;11.88;;;5.53;;
71629;SDS011;59479;51.902;8.212;2023-02-03T05:27:26;9.75;;;5.75;;
71629;SDS011;59479;51.902;8.212;2023-02-03T05:29:52;14.63;;;5.83;;
71629;SDS011;59479;51.902;8.212;2023-02-03T05:32:17;12.45;;;5.38;;
71629;SDS011;59479;51.902;8.212;2023-02-03T05:34:42;12.05;;;5.93;;
71629;SDS011;59479;51.902;8.212;2023-02-03T05:37:08;12.30;;;5.40;;
71629;SDS011;59479;51.902;8.212;2023-02-03T05:39:33;11.53;;;5.10;;
71629;SDS011;59479;51.902;8.212;2023-02-03T05:41:58;11.80;;;5.50;;
71629;SDS011;59479;51.902;8.212;2023-02-03T05:44:24;15.27;;;6.33;;
71629;SDS011;59479;51.902;8.212;2023-02-03T05:46:51;10.98;;;6.07;;
71629;SDS011;59479;51.902;8.212;2023-02-03T05:49:18;12.77;;;5.82;;
71629;SDS011;59479;51.902;8.212;2023-02-03T05:51:44;12.50;;;5.40;;
71629;SDS011;59479;51.902;8.212;2023-02-03T05:54:10;11.80;;;5.60;;
71629;SDS011;59479;51.902;8.212;2023-02-03T05:56:35;10.00;;;5.27;;
71629;SDS011;59479;51.902;8.212;2023-02-03T05:59:01;15.45;;;6.03;;
71629;SDS011;59479;51.902;8.212;2023-02-03T06:01:26;11.20;;;5.70;;
71629;SDS011;59479;51.902;8.212;2023-02-03T06:03:52;11.70;;;5.33;;
71629;SDS011;59479;51.902;8.212;2023-02-03T06:06:17;11.37;;;4.97;;
71629;SDS011;59479;51.902;8.212;2023-02-03T06:08:42;10.60;;;4.93;;
71629;SDS011;59479;51.902;8.212;2023-02-03T06:11:08;10.65;;;4.90;;
71629;SDS011;59479;51.902;8.212;2023-02-03T06:13:34;15.90;;;5.47;;
71629;SDS011;59479;51.902;8.212;2023-02-03T06:16:00;13.43;;;5.47;;
71629;SDS011;59479;51.902;8.212;2023-02-03T06:18:25;10.32;;;5.13;;
71629;SDS011;59479;51.902;8.212;2023-02-03T06:20:51;15.37;;;5.30;;
71629;SDS011;59479;51.902;8.212;2023-02-03T06:23:16;10.37;;;4.73;;
71629;SDS011;59479;51.902;8.212;2023-02-03T06:25:43;13.77;;;5.10;;
71629;SDS011;59479;51.902;8.212;2023-02-03T06:28:12;11.45;;;5.60;;
71629;SDS011;59479;51.902;8.212;2023-02-03T06:30:37;11.43;;;6.00;;
71629;SDS011;59479;51.902;8.212;2023-02-03T06:33:03;14.73;;;5.37;;
71629;SDS011;59479;51.902;8.212;2023-02-03T06:35:28;8.47;;;4.70;;
71629;SDS011;59479;51.902;8.212;2023-02-03T06:37:54;13.70;;;4.63;;
71629;SDS011;59479;51.902;8.212;2023-02-03T06:40:19;12.52;;;4.53;;
71629;SDS011;59479;51.902;8.212;2023-02-03T06:42:45;11.83;;;4.90;;
71629;SDS011;59479;51.902;8.212;2023-02-03T06:45:11;7.57;;;3.90;;
71629;SDS011;59479;51.902;8.212;2023-02-03T06:47:40;8.45;;;4.43;;
71629;SDS011;59479;51.902;8.212;2023-02-03T06:50:06;11.88;;;4.38;;
71629;SDS011;59479;51.902;8.212;2023-02-03T06:52:32;10.57;;;4.60;;
71629;SDS011;59479;51.902;8.212;2023-02-03T06:54:58;8.07;;;4.00;;
71629;SDS011;59479;51.902;8.212;2023-02-03T06:57:23;11.15;;;4.25;;
71629;SDS011;59479;51.902;8.212;2023-02-03T06:59:48;7.53;;;3.67;;
71629;SDS011;59479;51.902;8.212;2023-02-03T07:02:14;12.27;;;4.50;;
71629;SDS011;59479;51.902;8.212;2023-02-03T07:04:39;9.77;;;4.07;;
71629;SDS011;59479;51.902;8.212;2023-02-03T07:07:05;9.13;;;3.72;;
71629;SDS011;59479;51.902;8.212;2023-02-03T07:09:30;9.48;;;3.83;;
71629;SDS011;59479;51.902;8.212;2023-02-03T07:11:56;8.47;;;3.50;;
71629;SDS011;59479;51.902;8.212;2023-02-03T07:14:21;9.40;;;4.17;;
71629;SDS011;59479;51.902;8.212;2023-02-03T07:16:46;11.67;;;4.67;;
71629;SDS011;59479;51.902;8.212;2023-02-03T07:19:12;9.10;;;4.13;;
71629;SDS011;59479;51.902;8.212;2023-02-03T07:21:37;11.37;;;4.23;;
71629;SDS011;59479;51.902;8.212;2023-02-03T07:24:03;10.73;;;3.88;;
71629;SDS011;59479;51.902;8.212;2023-02-03T07:26:28;7.03;;;3.40;;
71629;SDS011;59479;51.902;8.212;2023-02-03T07:28:54;8.67;;;4.00;;
71629;SDS011;59479;51.902;8.212;2023-02-03T07:31:19;7.10;;;3.88;;
71629;SDS011;59479;51.902;8.212;2023-02-03T07:33:44;11.30;;;4.05;;
71629;SDS011;59479;51.902;8.212;2023-02-03T07:36:10;11.07;;;3.80;;
71629;SDS011;59479;51.902;8.212;2023-02-03T07:38:35;10.53;;;4.10;;
71629;SDS011;59479;51.902;8.212;2023-02-03T07:41:04;13.15;;;4.43;;
71629;SDS011;59479;51.902;8.212;2023-02-03T07:43:30;7.23;;;3.70;;
71629;SDS011;59479;51.902;8.212;2023-02-03T07:45:55;10.10;;;4.33;;
71629;SDS011;59479;51.902;8.212;2023-02-03T07:48:21;8.23;;;4.30;;
71629;SDS011;59479;51.902;8.212;2023-02-03T07:50:47;11.50;;;4.43;;
71629;SDS011;59479;51.902;8.212;2023-02-03T07:53:14;9.63;;;3.97;;
71629;SDS011;59479;51.902;8.212;2023-02-03T07:55:40;11.15;;;4.85;;
71629;SDS011;59479;51.902;8.212;2023-02-03T07:58:06;8.30;;;4.33;;
71629;SDS011;59479;51.902;8.212;2023-02-03T08:00:31;8.47;;;4.00;;
71629;SDS011;59479;51.902;8.212;2023-02-03T08:02:57;10.40;;;4.55;;
71629;SDS011;59479;51.902;8.212;2023-02-03T08:05:22;8.77;;;4.33;;
71629;SDS011;59479;51.902;8.212;2023-02-03T08:07:48;9.43;;;3.93;;
71629;SDS011;59479;51.902;8.212;2023-02-03T08:10:13;10.30;;;5.07;;
71629;SDS011;59479;51.902;8.212;2023-02-03T08:12:39;9.80;;;4.75;;
71629;SDS011;59479;51.902;8.212;2023-02-03T08:15:07;12.13;;;4.82;;
71629;SDS011;59479;51.902;8.212;2023-02-03T08:17:33;11.77;;;5.30;;
71629;SDS011;59479;51.902;8.212;2023-02-03T08:19:58;11.60;;;4.13;;
71629;SDS011;59479;51.902;8.212;2023-02-03T08:22:24;12.07;;;4.60;;
71629;SDS011;59479;51.902;8.212;2023-02-03T08:24:49;11.87;;;5.17;;
71629;SDS011;59479;51.902;8.212;2023-02-03T08:27:16;13.47;;;4.50;;
71629;SDS011;59479;51.902;8.212;2023-02-03T08:29:43;10.30;;;4.68;;
71629;SDS011;59479;51.902;8.212;2023-02-03T08:32:10;11.35;;;5.05;;
71629;SDS011;59479;51.902;8.212;2023-02-03T08:34:37;9.70;;;4.68;;
71629;SDS011;59479;51.902;8.212;2023-02-03T08:37:02;10.00;;;5.00;;
71629;SDS011;59479;51.902;8.212;2023-02-03T08:39:28;12.18;;;4.95;;
71629;SDS011;59479;51.902;8.212;2023-02-03T08:41:53;11.93;;;5.40;;
71629;SDS011;59479;51.902;8.212;2023-02-03T08:44:19;11.17;;;5.17;;
71629;SDS011;59479;51.902;8.212;2023-02-03T08:46:48;9.93;;;5.10;;
71629;SDS011;59479;51.902;8.212;2023-02-03T08:49:14;11.43;;;5.95;;
71629;SDS011;59479;51.902;8.212;2023-02-03T08:51:39;15.10;;;5.87;;
71629;SDS011;59479;51.902;8.212;2023-02-03T08:54:05;13.37;;;5.50;;
71629;SDS011;59479;51.902;8.212;2023-02-03T08:56:30;13.57;;;5.47;;
71629;SDS011;59479;51.902;8.212;2023-02-03T08:58:58;16.10;;;5.80;;
71629;SDS011;59479;51.902;8.212;2023-02-03T09:01:23;11.63;;;5.30;;
71629;SDS011;59479;51.902;8.212;2023-02-03T09:03:49;12.80;;;5.33;;
71629;SDS011;59479;51.902;8.212;2023-02-03T09:06:14;9.67;;;5.27;;
71629;SDS011;59479;51.902;8.212;2023-02-03T09:08:43;13.73;;;5.45;;
71629;SDS011;59479;51.902;8.212;2023-02-03T09:11:11;14.00;;;5.63;;
71629;SDS011;59479;51.902;8.212;2023-02-03T09:13:38;10.93;;;6.10;;
71629;SDS011;59479;51.902;8.212;2023-02-03T09:16:07;17.80;;;5.30;;
71629;SDS011;59479;51.902;8.212;2023-02-03T09:18:33;9.65;;;4.50;;
71629;SDS011;59479;51.902;8.212;2023-02-03T09:20:59;12.65;;;5.75;;
71629;SDS011;59479;51.902;8.212;2023-02-03T09:23:28;12.70;;;5.50;;
71629;SDS011;59479;51.902;8.212;2023-02-03T09:25:53;10.00;;;4.70;;
71629;SDS011;59479;51.902;8.212;2023-02-03T09:28:19;10.87;;;4.20;;
71629;SDS011;59479;51.902;8.212;2023-02-03T09:30:44;12.50;;;4.77;;
71629;SDS011;59479;51.902;8.212;2023-02-03T09:33:11;12.65;;;5.18;;
71629;SDS011;59479;51.902;8.212;2023-02-03T09:35:36;13.43;;;4.67;;
71629;SDS011;59479;51.902;8.212;2023-02-03T09:38:02;13.93;;;4.60;;
71629;SDS011;59479;51.902;8.212;2023-02-03T09:40:29;13.90;;;4.63;;
71629;SDS011;59479;51.902;8.212;2023-02-03T09:45:42;10.68;;;4.85;;
71629;SDS011;59479;51.902;8.212;2023-02-03T09:48:12;15.50;;;5.43;;
71629;SDS011;59479;51.902;8.212;2023-02-03T09:50:42;10.32;;;4.40;;
71629;SDS011;59479;51.902;8.212;2023-02-03T09:53:22;9.40;;;5.17;;
71629;SDS011;59479;51.902;8.212;2023-02-03T09:55:48;13.45;;;4.78;;
71629;SDS011;59479;51.902;8.212;2023-02-03T09:58:15;11.10;;;4.75;;
71629;SDS011;59479;51.902;8.212;2023-02-03T10:01:01;11.40;;;5.40;;
71629;SDS011;59479;51.902;8.212;2023-02-03T10:03:42;11.48;;;5.10;;
71629;SDS011;59479;51.902;8.212;2023-02-03T10:17:56;16.30;;;4.60;;
71629;SDS011;59479;51.902;8.212;2023-02-03T10:20:33;14.48;;;5.35;;
71629;SDS011;59479;51.902;8.212;2023-02-03T10:23:06;10.85;;;3.90;;
71629;SDS011;59479;51.902;8.212;2023-02-03T10:25:44;7.70;;;3.95;;
71629;SDS011;59479;51.902;8.212;2023-02-03T10:28:20;9.37;;;4.10;;
71629;SDS011;59479;51.902;8.212;2023-02-03T10:30:58;10.70;;;4.38;;
71629;SDS011;59479;51.902;8.212;2023-02-03T10:33:29;11.50;;;4.90;;
71629;SDS011;59479;51.902;8.212;2023-02-03T10:36:29;10.98;;;4.30;;
71629;SDS011;59479;51.902;8.212;2023-02-03T10:39:02;12.55;;;4.63;;
71629;SDS011;59479;51.902;8.212;2023-02-03T10:41:37;12.53;;;5.03;;
71629;SDS011;59479;51.902;8.212;2023-02-03T10:44:03;14.37;;;4.40;;
71629;SDS011;59479;51.902;8.212;2023-02-03T10:46:32;10.80;;;4.63;;
71629;SDS011;59479;51.902;8.212;2023-02-03T10:48:59;13.05;;;4.22;;
71629;SDS011;59479;51.902;8.212;2023-02-03T10:51:25;9.30;;;4.87;;
71629;SDS011;59479;51.902;8.212;2023-02-03T10:53:59;10.85;;;4.18;;
71629;SDS011;59479;51.902;8.212;2023-02-03T10:56:31;8.75;;;4.40;;
71629;SDS011;59479;51.902;8.212;2023-02-03T10:59:01;14.30;;;4.47;;
71629;SDS011;59479;51.902;8.212;2023-02-03T11:01:27;7.73;;;3.67;;
71629;SDS011;59479;51.902;8.212;2023-02-03T11:04:05;12.40;;;3.88;;
71629;SDS011;59479;51.902;8.212;2023-02-03T11:06:59;10.10;;;4.03;;
71629;SDS011;59479;51.902;8.212;2023-02-03T11:09:36;11.00;;;4.57;;
71629;SDS011;59479;51.902;8.212;2023-02-03T11:12:13;11.63;;;4.80;;
71629;SDS011;59479;51.902;8.212;2023-02-03T11:14:44;10.38;;;3.92;;
71629;SDS011;59479;51.902;8.212;2023-02-03T11:17:15;10.45;;;4.07;;
71629;SDS011;59479;51.902;8.212;2023-02-03T11:19:52;9.48;;;3.97;;
71629;SDS011;59479;51.902;8.212;2023-02-03T11:22:28;10.23;;;3.83;;
71629;SDS011;59479;51.902;8.212;2023-02-03T11:24:56;9.30;;;4.30;;
71629;SDS011;59479;51.902;8.212;2023-02-03T11:27:22;9.50;;;4.07;;
71629;SDS011;59479;51.902;8.212;2023-02-03T11:29:50;8.50;;;3.22;;
71629;SDS011;59479;51.902;8.212;2023-02-03T11:32:34;14.75;;;4.28;;
71629;SDS011;59479;51.902;8.212;2023-02-03T11:37:50;12.20;;;4.50;;
71629;SDS011;59479;51.902;8.212;2023-02-03T11:50:27;12.02;;;3.45;;
71629;SDS011;59479;51.902;8.212;2023-02-03T11:55:49;11.05;;;3.40;;
71629;SDS011;59479;51.902;8.212;2023-02-03T12:31:15;13.55;;;2.80;;
71629;SDS011;59479;51.902;8.212;2023-02-03T12:33:47;13.47;;;2.97;;
71629;SDS011;59479;51.902;8.212;2023-02-03T12:36:19;11.23;;;2.60;;
71629;SDS011;59479;51.902;8.212;2023-02-03T12:38:52;15.38;;;3.38;;
71629;SDS011;59479;51.902;8.212;2023-02-03T12:41:25;9.70;;;2.85;;
71629;SDS011;59479;51.902;8.212;2023-02-03T12:43:56;11.27;;;2.78;;
71629;SDS011;59479;51.902;8.212;2023-02-03T12:52:23;9.20;;;2.90;;
71629;SDS011;59479;51.902;8.212;2023-02-03T12:57:43;13.68;;;2.92;;
71629;SDS011;59479;51.902;8.212;2023-02-03T13:05:44;11.95;;;2.90;;
71629;SDS011;59479;51.902;8.212;2023-02-03T13:13:43;13.90;;;2.97;;
71629;SDS011;59479;51.902;8.212;2023-02-03T13:16:14;11.80;;;2.85;;
71629;SDS011;59479;51.902;8.212;2023-02-03T13:18:45;14.27;;;3.55;;
71629;SDS011;59479;51.902;8.212;2023-02-03T13:21:16;15.98;;;3.45;;
71629;SDS011;59479;51.902;8.212;2023-02-03T13:23:41;14.93;;;3.20;;
71629;SDS011;59479;51.902;8.212;2023-02-03T13:31:47;12.57;;;2.60;;
71629;SDS011;59479;51.902;8.212;2023-02-03T13:42:32;13.82;;;3.85;;
71629;SDS011;59479;51.902;8.212;2023-02-03T13:47:31;18.52;;;3.15;;
71629;SDS011;59479;51.902;8.212;2023-02-03T13:49:58;15.00;;;3.60;;
71629;SDS011;59479;51.902;8.212;2023-02-03T13:55:00;13.45;;;3.78;;
71629;SDS011;59479;51.902;8.212;2023-02-03T13:57:34;16.00;;;3.25;;
71629;SDS011;59479;51.902;8.212;2023-02-03T14:00:02;21.48;;;3.35;;
71629;SDS011;59479;51.902;8.212;2023-02-03T14:02:51;14.52;;;3.25;;
71629;SDS011;59479;51.902;8.212;2023-02-03T14:05:40;16.97;;;3.07;;
71629;SDS011;59479;51.902;8.212;2023-02-03T14:14:00;16.58;;;3.55;;
71629;SDS011;59479;51.902;8.212;2023-02-03T14:16:43;22.75;;;4.32;;
71629;SDS011;59479;51.902;8.212;2023-02-03T14:24:12;14.15;;;3.53;;
71629;SDS011;59479;51.902;8.212;2023-02-03T14:29:08;16.38;;;3.70;;
71629;SDS011;59479;51.902;8.212;2023-02-03T14:31:53;18.60;;;3.50;;
71629;SDS011;59479;51.902;8.212;2023-02-03T14:42:42;22.88;;;3.50;;
71629;SDS011;59479;51.902;8.212;2023-02-03T14:45:32;16.33;;;3.10;;
71629;SDS011;59479;51.902;8.212;2023-02-03T14:58:52;20.35;;;3.20;;
71629;SDS011;59479;51.902;8.212;2023-02-03T15:02:06;16.30;;;3.20;;
71629;SDS011;59479;51.902;8.212;2023-02-03T15:06:39;19.40;;;3.83;;
71629;SDS011;59479;51.902;8.212;2023-02-03T15:09:26;18.02;;;3.33;;
71629;SDS011;59479;51.902;8.212;2023-02-03T15:11:55;19.35;;;3.75;;
71629;SDS011;59479;51.902;8.212;2023-02-03T15:14:25;21.83;;;3.43;;
71629;SDS011;59479;51.902;8.212;2023-02-03T15:17:02;20.05;;;6.63;;
71629;SDS011;59479;51.902;8.212;2023-02-03T15:19:38;23.03;;;6.53;;
71629;SDS011;59479;51.902;8.212;2023-02-03T15:22:18;26.23;;;5.57;;
71629;SDS011;59479;51.902;8.212;2023-02-03T15:24:44;23.95;;;4.22;;
71629;SDS011;59479;51.902;8.212;2023-02-03T15:27:20;22.57;;;3.50;;
71629;SDS011;59479;51.902;8.212;2023-02-03T15:29:47;13.40;;;4.55;;
71629;SDS011;59479;51.902;8.212;2023-02-03T15:32:15;17.90;;;3.10;;
71629;SDS011;59479;51.902;8.212;2023-02-03T15:35:03;21.27;;;3.53;;
71629;SDS011;59479;51.902;8.212;2023-02-03T15:37:44;16.85;;;3.17;;
71629;SDS011;59479;51.902;8.212;2023-02-03T15:40:19;11.88;;;2.33;;
71629;SDS011;59479;51.902;8.212;2023-02-03T15:42:52;18.17;;;3.22;;
71629;SDS011;59479;51.902;8.212;2023-02-03T15:50:59;17.52;;;3.10;;
71629;SDS011;59479;51.902;8.212;2023-02-03T15:53:45;22.23;;;3.33;;
71629;SDS011;59479;51.902;8.212;2023-02-03T15:58:51;14.70;;;3.20;;
71629;SDS011;59479;51.902;8.212;2023-02-03T16:01:18;14.18;;;3.00;;
71629;SDS011;59479;51.902;8.212;2023-02-03T16:03:48;16.33;;;3.20;;
71629;SDS011;59479;51.902;8.212;2023-02-03T16:06:21;15.30;;;3.17;;
71629;SDS011;59479;51.902;8.212;2023-02-03T16:08:47;15.68;;;3.00;;
71629;SDS011;59479;51.902;8.212;2023-02-03T16:13:56;16.52;;;3.33;;
71629;SDS011;59479;51.902;8.212;2023-02-03T16:18:55;13.85;;;3.15;;
71629;SDS011;59479;51.902;8.212;2023-02-03T16:23:54;15.07;;;2.88;;
71629;SDS011;59479;51.902;8.212;2023-02-03T16:26:28;16.37;;;3.67;;
71629;SDS011;59479;51.902;8.212;2023-02-03T16:31:44;18.52;;;3.58;;
71629;SDS011;59479;51.902;8.212;2023-02-03T16:34:28;18.70;;;3.13;;
71629;SDS011;59479;51.902;8.212;2023-02-03T16:40:07;16.93;;;3.27;;
71629;SDS011;59479;51.902;8.212;2023-02-03T16:42:52;11.43;;;2.63;;
71629;SDS011;59479;51.902;8.212;2023-02-03T16:45:35;24.40;;;3.92;;
71629;SDS011;59479;51.902;8.212;2023-02-03T16:48:19;25.92;;;3.88;;
71629;SDS011;59479;51.902;8.212;2023-02-03T16:51:04;16.83;;;3.42;;
71629;SDS011;59479;51.902;8.212;2023-02-03T16:53:35;22.50;;;3.93;;
71629;SDS011;59479;51.902;8.212;2023-02-03T16:56:01;19.67;;;3.80;;
71629;SDS011;59479;51.902;8.212;2023-02-03T16:58:28;14.35;;;3.58;;
71629;SDS011;59479;51.902;8.212;2023-02-03T17:00:54;22.33;;;3.50;;
71629;SDS011;59479;51.902;8.212;2023-02-03T17:03:22;18.02;;;4.00;;
71629;SDS011;59479;51.902;8.212;2023-02-03T17:05:50;15.70;;;3.20;;
71629;SDS011;59479;51.902;8.212;2023-02-03T17:08:17;26.67;;;3.67;;
71629;SDS011;59479;51.902;8.212;2023-02-03T17:10:44;19.27;;;3.58;;
71629;SDS011;59479;51.902;8.212;2023-02-03T17:13:12;16.88;;;3.33;;
71629;SDS011;59479;51.902;8.212;2023-02-03T17:15:46;14.50;;;3.15;;
71629;SDS011;59479;51.902;8.212;2023-02-03T17:18:13;11.88;;;2.85;;
71629;SDS011;59479;51.902;8.212;2023-02-03T17:20:42;21.83;;;5.03;;
71629;SDS011;59479;51.902;8.212;2023-02-03T17:23:08;23.08;;;4.28;;
71629;SDS011;59479;51.902;8.212;2023-02-03T17:25:33;18.05;;;3.47;;
71629;SDS011;59479;51.902;8.212;2023-02-03T17:28:02;20.92;;;3.88;;
71629;SDS011;59479;51.902;8.212;2023-02-03T17:30:29;19.67;;;4.20;;
71629;SDS011;59479;51.902;8.212;2023-02-03T17:32:58;21.95;;;4.20;;
71629;SDS011;59479;51.902;8.212;2023-02-03T17:35:25;20.33;;;4.10;;
71629;SDS011;59479;51.902;8.212;2023-02-03T17:37:50;15.00;;;4.03;;
71629;SDS011;59479;51.902;8.212;2023-02-03T17:40:16;17.15;;;4.55;;
71629;SDS011;59479;51.902;8.212;2023-02-03T17:42:42;15.60;;;3.47;;
71629;SDS011;59479;51.902;8.212;2023-02-03T17:45:07;20.43;;;4.40;;